createdAt,value
2022-11-06T00:02:00.513Z,92903.63
2022-11-06T00:04:31.192Z,92906.81
2022-11-06T00:06:58.432Z,92902.09
2022-11-06T00:09:25.704Z,92899.19
2022-11-06T00:11:53.381Z,92901.31
2022-11-06T00:14:20.807Z,92913.69
2022-11-06T00:16:48.418Z,92907.16
2022-11-06T00:19:16.996Z,92910.09
2022-11-06T00:21:44.921Z,92914.34
2022-11-06T00:24:14.113Z,92911.44
2022-11-06T00:26:42.876Z,92909.56
2022-11-06T00:29:14.894Z,92913.44
2022-11-06T00:31:42.753Z,92915.09
2022-11-06T00:34:11.224Z,92916.12
2022-11-06T00:36:38.955Z,92917.12
2022-11-06T00:39:06.726Z,92915.09
2022-11-06T00:41:34.066Z,92914.47
2022-11-06T00:44:02.613Z,92920.47
2022-11-06T00:46:30.356Z,92922.59
2022-11-06T00:48:57.896Z,92914.47
2022-11-06T00:51:28.326Z,92918.41
2022-11-06T00:53:59.285Z,92913.88
2022-11-06T00:56:27.642Z,92917.59
2022-11-06T00:58:55.423Z,92921.72
2022-11-06T01:01:25.403Z,92919.41
2022-11-06T01:04:07.552Z,92921.78
2022-11-06T01:06:38.383Z,92915.72
2022-11-06T01:09:07.233Z,92910.69
2022-11-06T01:11:59.301Z,92918.50
2022-11-06T01:14:24.364Z,92915.59
2022-11-06T01:16:52.274Z,92911.66
2022-11-06T01:19:21.227Z,92911.06
2022-11-06T01:21:50.689Z,92924.19
2022-11-06T01:24:24.981Z,92918.66
2022-11-06T01:27:20.298Z,92915.59
2022-11-06T01:29:41.805Z,92912.72
2022-11-06T01:32:09.553Z,92914.34
2022-11-06T01:34:37.084Z,92920.59
2022-11-06T01:37:05.206Z,92920.06
2022-11-06T01:39:32.753Z,92919.56
2022-11-06T01:42:00.110Z,92921.03
2022-11-06T01:44:34.000Z,92924.47
2022-11-06T01:47:04.624Z,92922.22
2022-11-06T01:49:37.818Z,92913.09
2022-11-06T01:52:11.690Z,92913.06
2022-11-06T01:54:42.039Z,92919.28
2022-11-06T01:57:11.543Z,92914.34
2022-11-06T01:59:43.602Z,92917.28
2022-11-06T02:02:12.274Z,92914.03
2022-11-06T02:04:45.832Z,92913.59
2022-11-06T02:07:13.450Z,92912.75
2022-11-06T02:09:41.624Z,92918.25
2022-11-06T02:12:15.040Z,92907.81
2022-11-06T02:14:51.173Z,92913.59
2022-11-06T02:18:01.480Z,92917.69
2022-11-06T02:20:54.753Z,92917.69
2022-11-06T02:23:37.812Z,92916.31
2022-11-06T02:26:12.297Z,92912.03
2022-11-06T02:28:47.208Z,92914.13
2022-11-06T02:31:21.282Z,92924.50
2022-11-06T02:33:54.577Z,92929.28
2022-11-06T02:36:29.414Z,92935.25
2022-11-06T02:39:01.065Z,92925.84
2022-11-06T02:41:39.856Z,92932.56
2022-11-06T02:44:10.527Z,92927.53
2022-11-06T02:46:46.825Z,92924.50
2022-11-06T02:49:41.466Z,92930.69
2022-11-06T02:52:14.465Z,92936.19
2022-11-06T02:54:48.017Z,92933.47
2022-11-06T02:57:18.553Z,92930.19
2022-11-06T02:59:54.583Z,92932.16
2022-11-06T03:02:29.588Z,92934.03
2022-11-06T03:05:26.099Z,92936.09
2022-11-06T03:08:20.953Z,92935.63
2022-11-06T03:11:12.244Z,92936.19
2022-11-06T03:13:49.375Z,92935.37
2022-11-06T03:16:44.629Z,92940.59
2022-11-06T03:19:24.663Z,92941.72
2022-11-06T03:22:14.495Z,92936.19
2022-11-06T03:24:48.262Z,92925.63
2022-11-06T03:27:20.803Z,92935.78
2022-11-06T03:30:05.917Z,92928.41
2022-11-06T03:32:36.432Z,92932.69
2022-11-06T03:35:13.280Z,92935.09
2022-11-06T03:37:48.740Z,92933.56
2022-11-06T03:40:19.087Z,92938.22
2022-11-06T03:42:49.533Z,92949.16
2022-11-06T03:45:22.523Z,92948.31
2022-11-06T03:48:08.317Z,92934.72
2022-11-06T03:50:43.149Z,92945.84
2022-11-06T03:53:18.141Z,92943.78
2022-11-06T03:55:52.275Z,92950.59
2022-11-06T03:58:24.866Z,92940.66
2022-11-06T04:00:55.352Z,92942.53
2022-11-06T04:03:38.298Z,92937.06
2022-11-06T04:06:14.907Z,92936.66
2022-11-06T04:09:04.084Z,92944.06
2022-11-06T04:11:53.940Z,92934.87
2022-11-06T04:14:26.090Z,92940.12
2022-11-06T04:16:57.960Z,92942.19
2022-11-06T04:19:25.655Z,92942.06
2022-11-06T04:22:17.341Z,92940.72
2022-11-06T04:25:26.829Z,92937.50
2022-11-06T04:28:06.169Z,92948.81
2022-11-06T04:31:03.941Z,92959.94
2022-11-06T04:33:49.810Z,92959.78
2022-11-06T04:37:00.319Z,92954.59
2022-11-06T04:39:37.090Z,92961.13
2022-11-06T04:42:34.115Z,92950.91
2022-11-06T04:45:22.231Z,92951.94
2022-11-06T04:47:52.384Z,92948.56
2022-11-06T04:50:22.865Z,92946.38
2022-11-06T04:52:52.162Z,92946.81
2022-11-06T04:55:22.206Z,92941.53
2022-11-06T04:57:49.526Z,92949.94
2022-11-06T05:00:18.135Z,92955.81
2022-11-06T05:02:45.407Z,92952.88
2022-11-06T05:05:13.053Z,92962.47
2022-11-06T05:09:16.397Z,92963.22
2022-11-06T05:11:44.362Z,92963.22
2022-11-06T05:14:11.732Z,92970.00
2022-11-06T05:16:39.131Z,92971.63
2022-11-06T05:19:07.011Z,92971.63
2022-11-06T05:21:52.781Z,92979.00
2022-11-06T05:24:20.424Z,92974.75
2022-11-06T05:26:47.738Z,92973.69
2022-11-06T05:29:15.333Z,92974.75
2022-11-06T05:31:43.348Z,92978.19
2022-11-06T05:34:10.849Z,92978.63
2022-11-06T05:36:38.158Z,92977.66
2022-11-06T05:39:05.888Z,92987.03
2022-11-06T05:41:33.212Z,92995.16
2022-11-06T05:44:00.674Z,92994.84
2022-11-06T05:46:48.254Z,92997.19
2022-11-06T05:49:18.948Z,93002.38
2022-11-06T05:51:46.885Z,93003.16
2022-11-06T05:54:15.997Z,93003.97
2022-11-06T05:56:43.688Z,93018.03
2022-11-06T05:59:11.842Z,93013.16
2022-11-06T06:01:39.528Z,93024.72
2022-11-06T06:04:07.867Z,93019.00
2022-11-06T06:06:36.172Z,93033.53
2022-11-06T06:09:03.520Z,93033.44
2022-11-06T06:11:31.156Z,93036.16
2022-11-06T06:13:58.531Z,93039.22
2022-11-06T06:16:25.903Z,93043.84
2022-11-06T06:18:54.743Z,93038.09
2022-11-06T06:21:22.986Z,93030.16
2022-11-06T06:23:50.418Z,93045.00
2022-11-06T06:26:18.411Z,93051.56
2022-11-06T06:28:50.181Z,93053.94
2022-11-06T06:31:18.433Z,93052.22
2022-11-06T06:33:46.158Z,93072.69
2022-11-06T06:36:13.598Z,93073.53
2022-11-06T06:38:41.667Z,93074.03
2022-11-06T06:41:10.282Z,93074.03
2022-11-06T06:43:37.891Z,93076.75
2022-11-06T06:46:07.518Z,93080.19
2022-11-06T06:51:28.498Z,93095.22
2022-11-06T06:53:56.031Z,93101.56
2022-11-06T06:56:25.211Z,93087.06
2022-11-06T06:58:54.627Z,93091.84
2022-11-06T07:01:52.203Z,93092.81
2022-11-06T07:04:21.445Z,93086.47
2022-11-06T07:32:39.458Z,93114.25
2022-11-06T07:35:08.280Z,93116.16
2022-11-06T07:37:36.979Z,93117.69
2022-11-06T07:40:04.907Z,93127.09
2022-11-06T07:42:33.187Z,93125.25
2022-11-06T07:45:01.312Z,93119.63
2022-11-06T07:47:31.004Z,93120.56
2022-11-06T07:49:58.862Z,93129.16
2022-11-06T07:52:36.487Z,93119.03
2022-11-06T07:55:07.887Z,93125.72
2022-11-06T07:57:38.360Z,93132.91
2022-11-06T08:00:07.259Z,93135.06
2022-11-06T08:02:41.447Z,93130.28
2022-11-06T08:05:10.262Z,93133.28
2022-11-06T08:07:37.757Z,93140.31
2022-11-06T08:10:05.760Z,93137.62
2022-11-06T08:12:33.528Z,93144.78
2022-11-06T08:15:00.981Z,93152.91
2022-11-06T08:17:30.257Z,93160.25
2022-11-06T08:19:58.023Z,93157.03
2022-11-06T08:22:25.498Z,93152.75
2022-11-06T08:24:52.902Z,93158.81
2022-11-06T08:27:20.752Z,93163.31
2022-11-06T08:29:48.098Z,93163.19
2022-11-06T08:32:15.475Z,93163.69
2022-11-06T08:34:43.297Z,93163.84
2022-11-06T08:37:11.555Z,93172.47
2022-11-06T08:39:39.147Z,93169.16
2022-11-06T08:42:07.980Z,93164.53
2022-11-06T08:44:35.464Z,93171.59
2022-11-06T08:47:02.817Z,93170.47
2022-11-06T08:49:30.523Z,93170.47
2022-11-06T08:51:57.906Z,93174.41
2022-11-06T08:54:25.298Z,93171.28
2022-11-06T08:56:53.009Z,93176.16
2022-11-06T08:59:20.393Z,93176.44
2022-11-06T09:01:47.863Z,93174.16
2022-11-06T09:04:15.737Z,93165.66
2022-11-06T09:06:43.177Z,93175.03
2022-11-06T09:09:10.796Z,93177.72
2022-11-06T09:11:38.584Z,93174.03
2022-11-06T09:14:05.969Z,93180.13
2022-11-06T09:16:33.366Z,93174.34
2022-11-06T09:19:01.266Z,93179.34
2022-11-06T09:21:28.668Z,93177.84
2022-11-06T09:23:56.109Z,93178.44
2022-11-06T09:26:23.825Z,93181.59
2022-11-06T09:28:51.470Z,93178.03
2022-11-06T09:31:18.820Z,93176.41
2022-11-06T09:33:46.577Z,93181.88
2022-11-06T09:36:13.925Z,93181.13
2022-11-06T09:38:41.267Z,93185.06
2022-11-06T09:41:23.075Z,93180.34
2022-11-06T09:44:17.857Z,93180.75
2022-11-06T09:46:47.715Z,93171.56
2022-11-06T09:49:30.354Z,93176.47
2022-11-06T09:52:39.698Z,93176.41
2022-11-06T09:55:28.289Z,93169.34
2022-11-06T09:58:01.439Z,93171.97
2022-11-06T10:00:29.521Z,93174.69
2022-11-06T10:03:24.784Z,93176.56
2022-11-06T10:05:53.893Z,93172.31
2022-11-06T10:08:24.473Z,93172.56
2022-11-06T10:11:10.686Z,93170.28
2022-11-06T10:14:08.008Z,93170.09
2022-11-06T10:17:01.077Z,93167.13
2022-11-06T10:19:40.329Z,93167.62
2022-11-06T10:22:07.709Z,93175.56
2022-11-06T10:25:04.874Z,93171.94
2022-11-06T10:27:48.626Z,93169.97
2022-11-06T10:30:19.049Z,93170.00
2022-11-06T10:33:08.840Z,93169.69
2022-11-06T10:35:51.361Z,93173.59
2022-11-06T10:38:25.180Z,93173.09
2022-11-06T10:40:55.243Z,93177.03
2022-11-06T10:43:46.950Z,93176.91
2022-11-06T10:46:23.853Z,93177.50
2022-11-06T10:48:56.222Z,93174.84
2022-11-06T10:51:26.905Z,93179.50
2022-11-06T10:54:07.203Z,93180.34
2022-11-06T10:56:47.943Z,93174.28
2022-11-06T10:59:16.611Z,93180.34
2022-11-06T11:01:44.565Z,93183.47
2022-11-06T11:04:12.198Z,93183.19
2022-11-06T11:06:41.066Z,93177.41
2022-11-06T11:09:33.007Z,93177.91
2022-11-06T11:12:00.959Z,93172.81
2022-11-06T11:14:31.103Z,93175.91
2022-11-06T11:17:01.623Z,93170.16
2022-11-06T11:19:38.372Z,93174.56
2022-11-06T11:22:17.650Z,93170.47
2022-11-06T11:25:03.016Z,93165.25
2022-11-06T11:27:35.293Z,93163.41
2022-11-06T11:30:06.203Z,93164.72
2022-11-06T11:32:34.103Z,93160.56
2022-11-06T11:35:07.541Z,93163.72
2022-11-06T11:37:36.306Z,93164.31
2022-11-06T11:40:36.648Z,93158.25
2022-11-06T11:43:19.869Z,93160.91
2022-11-06T11:46:05.592Z,93164.53
2022-11-06T11:48:46.241Z,93160.34
2022-11-06T11:51:28.323Z,93168.81
2022-11-06T11:54:16.302Z,93164.66
2022-11-06T11:57:18.110Z,93168.12
2022-11-06T11:59:57.130Z,93165.63
2022-11-06T12:02:37.334Z,93170.16
2022-11-06T12:05:12.955Z,93166.47
2022-11-06T12:07:54.585Z,93174.84
2022-11-06T12:10:30.984Z,93163.63
2022-11-06T12:13:00.037Z,93158.00
2022-11-06T12:15:34.144Z,93163.56
2022-11-06T12:18:06.827Z,93162.25
2022-11-06T12:20:40.085Z,93154.22
2022-11-06T12:23:15.060Z,93162.19
2022-11-06T12:25:48.218Z,93161.97
2022-11-06T12:28:19.176Z,93165.31
2022-11-06T12:30:54.440Z,93170.59
2022-11-06T12:33:52.040Z,93169.53
2022-11-06T12:36:19.008Z,93169.03
2022-11-06T12:39:04.315Z,93169.09
2022-11-06T12:41:36.953Z,93165.38
2022-11-06T12:44:09.761Z,93166.97
2022-11-06T12:46:47.829Z,93168.31
2022-11-06T12:49:21.391Z,93170.16
2022-11-06T12:52:20.343Z,93170.13
2022-11-06T12:55:14.285Z,93171.44
2022-11-06T12:58:04.686Z,93172.16
2022-11-06T13:00:41.176Z,93185.84
2022-11-06T13:03:28.405Z,93187.97
2022-11-06T13:05:56.091Z,93187.13
2022-11-06T13:08:43.107Z,93190.50
2022-11-06T13:11:33.543Z,93188.13
2022-11-06T13:14:09.781Z,93189.22
2022-11-06T13:17:06.255Z,93192.09
2022-11-06T13:20:07.989Z,93198.12
2022-11-06T13:22:59.060Z,93199.28
2022-11-06T13:25:35.130Z,93199.94
2022-11-06T13:28:17.192Z,93201.25
2022-11-06T13:30:46.236Z,93206.31
2022-11-06T13:33:31.376Z,93205.91
2022-11-06T13:36:00.556Z,93208.03
2022-11-06T13:38:30.613Z,93205.16
2022-11-06T13:41:03.838Z,93206.69
2022-11-06T13:43:41.567Z,93213.69
2022-11-06T13:46:18.450Z,93207.91
2022-11-06T13:48:59.642Z,93215.03
2022-11-06T13:51:37.929Z,93212.66
2022-11-06T13:54:35.657Z,93213.31
2022-11-06T13:57:12.643Z,93212.91
2022-11-06T14:00:03.721Z,93214.62
2022-11-06T14:03:10.113Z,93219.13
2022-11-06T14:09:24.934Z,93210.84
2022-11-06T14:11:56.933Z,93210.84
2022-11-06T14:14:30.544Z,93212.59
2022-11-06T14:17:14.777Z,93211.94
2022-11-06T14:19:49.135Z,93215.97
2022-11-06T14:22:36.549Z,93225.09
2022-11-06T14:25:42.296Z,93224.75
2022-11-06T14:28:10.176Z,93230.25
2022-11-06T14:31:10.883Z,93231.13
2022-11-06T14:33:44.148Z,93232.81
2022-11-06T14:36:35.928Z,93233.75
2022-11-06T14:39:09.779Z,93236.28
2022-11-06T14:41:38.601Z,93231.44
2022-11-06T14:44:15.890Z,93240.06
2022-11-06T14:46:50.725Z,93231.75
2022-11-06T14:49:42.332Z,93241.19
2022-11-06T14:52:14.067Z,93239.94
2022-11-06T14:55:09.739Z,93245.25
2022-11-06T14:57:43.624Z,93240.56
2022-11-06T15:00:35.630Z,93239.16
2022-11-06T15:03:06.340Z,93240.03
2022-11-06T15:05:41.842Z,93246.56
2022-11-06T15:08:10.582Z,93243.97
2022-11-06T15:10:44.325Z,93237.94
2022-11-06T15:13:18.348Z,93249.53
2022-11-06T15:15:50.549Z,93253.50
2022-11-06T15:18:24.171Z,93255.84
2022-11-06T15:20:57.430Z,93250.38
2022-11-06T15:23:59.049Z,93254.50
2022-11-06T15:26:41.287Z,93255.56
2022-11-06T15:29:18.318Z,93260.59
2022-11-06T15:32:02.953Z,93259.25
2022-11-06T15:34:36.836Z,93267.88
2022-11-06T15:37:04.581Z,93265.59
2022-11-06T15:39:59.106Z,93266.88
2022-11-06T15:42:34.738Z,93267.91
2022-11-06T15:45:12.979Z,93272.28
2022-11-06T15:47:40.742Z,93277.44
2022-11-06T15:50:21.582Z,93276.91
2022-11-06T15:52:50.443Z,93285.94
2022-11-06T15:55:29.529Z,93289.91
2022-11-06T15:58:09.009Z,93282.28
2022-11-06T16:00:39.121Z,93288.56
2022-11-06T16:03:06.906Z,93292.72
2022-11-06T16:05:37.168Z,93295.59
2022-11-06T16:08:06.951Z,93298.19
2022-11-06T16:10:37.351Z,93303.69
2022-11-06T16:13:05.561Z,93312.03
2022-11-06T16:15:45.260Z,93313.06
2022-11-06T16:18:16.401Z,93317.34
2022-11-06T16:21:05.870Z,93316.56
2022-11-06T16:23:48.662Z,93321.03
2022-11-06T16:26:37.583Z,93318.59
2022-11-06T16:29:15.870Z,93322.03
2022-11-06T16:31:44.139Z,93327.19
2022-11-06T16:34:37.737Z,93328.75
2022-11-06T16:37:08.311Z,93332.94
2022-11-06T16:39:51.034Z,93337.66
2022-11-06T16:42:22.460Z,93337.25
2022-11-06T16:45:13.217Z,93331.28
2022-11-06T16:47:40.637Z,93337.03
2022-11-06T16:50:45.990Z,93337.75
2022-11-06T16:53:19.630Z,93341.28
2022-11-06T16:56:06.788Z,93343.47
2022-11-06T16:58:56.664Z,93341.59
2022-11-06T17:01:25.120Z,93352.88
2022-11-06T17:03:59.624Z,93360.38
2022-11-06T17:06:32.564Z,93353.03
2022-11-06T17:09:35.462Z,93352.03
2022-11-06T17:12:03.829Z,93349.97
2022-11-06T17:14:32.807Z,93356.88
2022-11-06T17:17:01.560Z,93356.31
2022-11-06T17:19:30.071Z,93349.41
2022-11-06T17:21:58.345Z,93361.44
2022-11-06T17:24:41.607Z,93366.12
2022-11-06T17:27:09.425Z,93364.25
2022-11-06T17:29:37.035Z,93363.69
2022-11-06T17:32:04.886Z,93368.75
2022-11-06T17:34:32.729Z,93370.47
2022-11-06T17:37:00.092Z,93359.97
2022-11-06T17:39:27.526Z,93360.16
2022-11-06T17:41:55.466Z,93366.28
2022-11-06T17:44:22.903Z,93375.28
2022-11-06T17:46:50.355Z,93374.88
2022-11-06T17:49:18.891Z,93375.44
2022-11-06T17:51:52.909Z,93381.31
2022-11-06T17:54:23.713Z,93380.75
2022-11-06T17:56:51.689Z,93385.22
2022-11-06T17:59:19.206Z,93385.06
2022-11-06T18:01:53.390Z,93395.56
2022-11-06T18:04:23.000Z,93397.50
2022-11-06T18:06:52.270Z,93398.72
2022-11-06T18:09:21.030Z,93395.06
2022-11-06T18:11:52.830Z,93395.84
2022-11-06T18:14:21.621Z,93397.34
2022-11-06T18:16:49.400Z,93403.41
2022-11-06T18:19:21.031Z,93397.53
2022-11-06T18:21:49.361Z,93396.41
2022-11-06T18:24:16.910Z,93399.19
2022-11-06T18:26:44.398Z,93402.84
2022-11-06T18:29:13.023Z,93400.53
2022-11-06T18:31:41.361Z,93399.13
2022-11-06T18:34:18.414Z,93405.31
2022-11-06T18:36:50.263Z,93410.00
2022-11-06T18:39:18.307Z,93407.13
2022-11-06T18:41:45.784Z,93406.56
2022-11-06T18:44:16.247Z,93410.38
2022-11-06T18:46:43.834Z,93414.50
2022-11-06T18:49:12.593Z,93416.09
2022-11-06T18:51:40.768Z,93415.28
2022-11-06T18:54:10.850Z,93423.41
2022-11-06T18:56:39.063Z,93421.47
2022-11-06T18:59:09.054Z,93420.47
2022-11-06T19:01:36.573Z,93424.63
2022-11-06T19:04:05.138Z,93426.91
2022-11-06T19:06:32.944Z,93424.88
2022-11-06T19:09:00.418Z,93428.28
2022-11-06T19:11:27.839Z,93429.06
2022-11-06T19:13:55.605Z,93426.38
2022-11-06T19:16:23.010Z,93424.38
2022-11-06T19:21:32.803Z,93428.47
2022-11-06T19:24:04.477Z,93430.28
2022-11-06T19:26:35.341Z,93435.00
2022-11-06T19:29:05.466Z,93436.31
2022-11-06T19:31:33.603Z,93434.44
2022-11-06T19:34:02.150Z,93428.56
2022-11-06T19:36:30.987Z,93431.31
2022-11-06T19:38:59.153Z,93428.78
2022-11-06T19:41:27.940Z,93433.00
2022-11-06T19:43:55.557Z,93436.09
2022-11-06T19:46:28.220Z,93434.88
2022-11-06T19:48:58.392Z,93434.09
2022-11-06T19:51:26.138Z,93433.19
2022-11-06T19:53:54.329Z,93448.09
2022-11-06T19:56:22.319Z,93448.53
2022-11-06T19:58:50.891Z,93446.25
2022-11-06T20:01:20.204Z,93455.03
2022-11-06T20:03:48.042Z,93454.13
2022-11-06T20:06:16.754Z,93455.03
2022-11-06T20:08:48.398Z,93450.72
2022-11-06T20:11:16.761Z,93450.88
2022-11-06T20:13:45.756Z,93461.00
2022-11-06T20:16:17.120Z,93457.34
2022-11-06T20:18:51.334Z,93461.09
2022-11-06T20:21:19.126Z,93465.44
2022-11-06T20:23:46.893Z,93472.56
2022-11-06T20:26:15.268Z,93478.72
2022-11-06T20:28:42.825Z,93470.31
2022-11-06T20:31:12.214Z,93477.25
2022-11-06T20:33:40.358Z,93483.94
2022-11-06T20:36:15.365Z,93480.66
2022-11-06T20:38:46.751Z,93488.94
2022-11-06T20:41:16.577Z,93490.56
2022-11-06T20:43:45.168Z,93499.34
2022-11-06T20:46:14.101Z,93485.34
2022-11-06T20:48:43.132Z,93500.56
2022-11-06T20:51:20.501Z,93495.56
2022-11-06T20:53:47.912Z,93499.19
2022-11-06T20:56:18.800Z,93502.28
2022-11-06T20:58:47.105Z,93491.81
2022-11-06T21:01:18.371Z,93509.13
2022-11-06T21:03:47.770Z,93511.16
2022-11-06T21:06:15.996Z,93517.63
2022-11-06T21:08:43.939Z,93517.28
2022-11-06T21:11:18.249Z,93517.28
2022-11-06T21:13:48.321Z,93523.09
2022-11-06T21:16:24.914Z,93528.72
2022-11-06T21:18:52.816Z,93524.41
2022-11-06T21:21:25.363Z,93530.25
2022-11-06T21:23:53.882Z,93533.09
2022-11-06T21:26:27.008Z,93543.06
2022-11-06T21:28:55.957Z,93544.44
2022-11-06T21:31:27.358Z,93550.81
2022-11-06T21:33:56.325Z,93540.16
2022-11-06T21:36:26.797Z,93554.56
2022-11-06T21:38:56.944Z,93551.72
2022-11-06T21:41:26.668Z,93556.50
2022-11-06T21:43:54.083Z,93553.56
2022-11-06T21:46:22.362Z,93554.13
2022-11-06T21:48:50.841Z,93552.31
2022-11-06T21:51:24.098Z,93556.28
2022-11-06T21:54:10.829Z,93560.06
2022-11-06T21:56:39.812Z,93553.69
2022-11-06T21:59:10.244Z,93556.88
2022-11-06T22:01:38.227Z,93557.09
2022-11-06T22:04:06.789Z,93550.69
2022-11-06T22:06:34.458Z,93563.78
2022-11-06T22:09:03.065Z,93563.91
2022-11-06T22:11:33.945Z,93559.00
2022-11-06T22:14:04.273Z,93560.25
2022-11-06T22:16:34.896Z,93558.78
2022-11-06T22:19:02.408Z,93549.78
2022-11-06T22:21:30.942Z,93555.59
2022-11-06T22:23:58.857Z,93563.69
2022-11-06T22:26:29.930Z,93559.91
2022-11-06T22:29:00.136Z,93561.63
2022-11-06T22:31:28.837Z,93566.28
2022-11-06T22:33:57.191Z,93565.59
2022-11-06T22:36:25.814Z,93557.28
2022-11-06T22:38:53.786Z,93558.00
2022-11-06T22:41:24.021Z,93551.53
2022-11-06T22:43:51.993Z,93556.84
2022-11-06T22:46:22.680Z,93561.88
2022-11-06T22:48:51.950Z,93560.72
2022-11-06T22:51:25.626Z,93561.88
2022-11-06T22:53:53.414Z,93564.72
2022-11-06T22:56:22.786Z,93569.59
2022-11-06T22:59:01.338Z,93565.63
2022-11-06T23:01:31.039Z,93574.94
2022-11-06T23:04:03.171Z,93572.53
2022-11-06T23:06:31.762Z,93577.66
2022-11-06T23:08:59.289Z,93575.03
2022-11-06T23:11:28.663Z,93568.34
2022-11-06T23:13:57.675Z,93567.66
2022-11-06T23:16:45.549Z,93558.81
2022-11-06T23:19:16.197Z,93557.44
2022-11-06T23:21:43.796Z,93557.53
2022-11-06T23:24:11.774Z,93560.37
2022-11-06T23:26:39.844Z,93563.56
2022-11-06T23:29:08.316Z,93563.78
2022-11-06T23:31:35.695Z,93568.00
2022-11-06T23:34:03.480Z,93566.09
2022-11-06T23:36:30.825Z,93566.44
2022-11-06T23:38:58.183Z,93571.31
2022-11-06T23:41:45.720Z,93567.09
2022-11-06T23:44:33.496Z,93565.19
2022-11-06T23:47:02.082Z,93576.88
2022-11-06T23:49:29.695Z,93573.56
2022-11-06T23:51:57.197Z,93567.44
2022-11-06T23:54:25.706Z,93575.75
2022-11-06T23:56:53.062Z,93570.16
2022-11-06T23:59:20.987Z,93575.63
